sensor_id;sensor_type;location;lat;lon;timestamp;temperature;humidity
20777;DHT22;10548;47.504;8.248;2023-05-07T00:00:09;13.60;99.90
20777;DHT22;10548;47.504;8.248;2023-05-07T00:02:38;13.60;99.90
20777;DHT22;10548;47.504;8.248;2023-05-07T00:05:06;13.60;99.90
20777;DHT22;10548;47.504;8.248;2023-05-07T00:07:34;13.70;99.90
20777;DHT22;10548;47.504;8.248;2023-05-07T00:10:03;13.70;99.90
20777;DHT22;10548;47.504;8.248;2023-05-07T00:12:30;13.70;99.90
20777;DHT22;10548;47.504;8.248;2023-05-07T00:15:04;13.60;99.90
20777;DHT22;10548;47.504;8.248;2023-05-07T00:17:33;13.50;99.90
20777;DHT22;10548;47.504;8.248;2023-05-07T00:20:00;13.60;99.90
20777;DHT22;10548;47.504;8.248;2023-05-07T00:22:27;13.50;99.90
20777;DHT22;10548;47.504;8.248;2023-05-07T00:24:56;13.50;99.90
20777;DHT22;10548;47.504;8.248;2023-05-07T00:27:24;13.40;99.90
20777;DHT22;10548;47.504;8.248;2023-05-07T00:29:51;13.40;99.90
20777;DHT22;10548;47.504;8.248;2023-05-07T00:32:19;13.50;99.90
20777;DHT22;10548;47.504;8.248;2023-05-07T00:34:46;13.40;99.90
20777;DHT22;10548;47.504;8.248;2023-05-07T00:37:13;13.40;99.90
20777;DHT22;10548;47.504;8.248;2023-05-07T00:39:40;13.30;99.90
20777;DHT22;10548;47.504;8.248;2023-05-07T00:42:07;13.30;99.90
20777;DHT22;10548;47.504;8.248;2023-05-07T00:44:34;13.30;99.90
20777;DHT22;10548;47.504;8.248;2023-05-07T00:47:03;13.30;99.90
20777;DHT22;10548;47.504;8.248;2023-05-07T00:49:38;13.20;99.90
20777;DHT22;10548;47.504;8.248;2023-05-07T00:52:07;13.20;99.90
20777;DHT22;10548;47.504;8.248;2023-05-07T00:54:35;13.20;99.90
20777;DHT22;10548;47.504;8.248;2023-05-07T00:57:03;13.10;99.90
20777;DHT22;10548;47.504;8.248;2023-05-07T00:59:32;13.20;99.90
20777;DHT22;10548;47.504;8.248;2023-05-07T01:01:59;13.20;99.90
20777;DHT22;10548;47.504;8.248;2023-05-07T01:04:27;13.20;99.90
20777;DHT22;10548;47.504;8.248;2023-05-07T01:06:56;13.20;99.90
20777;DHT22;10548;47.504;8.248;2023-05-07T01:09:25;13.10;99.90
20777;DHT22;10548;47.504;8.248;2023-05-07T01:11:53;13.00;99.90
20777;DHT22;10548;47.504;8.248;2023-05-07T01:14:21;13.10;99.90
20777;DHT22;10548;47.504;8.248;2023-05-07T01:16:49;13.00;99.90
20777;DHT22;10548;47.504;8.248;2023-05-07T01:19:21;13.10;99.90
20777;DHT22;10548;47.504;8.248;2023-05-07T01:21:49;13.10;99.90
20777;DHT22;10548;47.504;8.248;2023-05-07T01:24:19;13.10;99.90
20777;DHT22;10548;47.504;8.248;2023-05-07T01:26:47;13.00;99.90
20777;DHT22;10548;47.504;8.248;2023-05-07T01:29:16;13.00;99.90
20777;DHT22;10548;47.504;8.248;2023-05-07T01:31:45;13.00;99.90
20777;DHT22;10548;47.504;8.248;2023-05-07T01:34:14;13.00;99.90
20777;DHT22;10548;47.504;8.248;2023-05-07T01:36:44;13.00;99.90
20777;DHT22;10548;47.504;8.248;2023-05-07T01:39:12;12.90;99.90
20777;DHT22;10548;47.504;8.248;2023-05-07T01:41:39;12.80;99.90
20777;DHT22;10548;47.504;8.248;2023-05-07T01:44:07;12.80;99.90
20777;DHT22;10548;47.504;8.248;2023-05-07T01:46:35;12.80;99.90
20777;DHT22;10548;47.504;8.248;2023-05-07T01:49:03;12.70;99.90
20777;DHT22;10548;47.504;8.248;2023-05-07T01:51:31;12.60;99.90
20777;DHT22;10548;47.504;8.248;2023-05-07T01:53:58;12.50;99.90
20777;DHT22;10548;47.504;8.248;2023-05-07T01:56:26;12.60;99.90
20777;DHT22;10548;47.504;8.248;2023-05-07T01:58:54;12.60;99.90
20777;DHT22;10548;47.504;8.248;2023-05-07T02:01:21;12.50;99.90
20777;DHT22;10548;47.504;8.248;2023-05-07T02:03:49;12.40;99.90
20777;DHT22;10548;47.504;8.248;2023-05-07T02:06:22;12.40;99.90
20777;DHT22;10548;47.504;8.248;2023-05-07T02:08:51;12.50;99.90
20777;DHT22;10548;47.504;8.248;2023-05-07T02:11:18;12.50;99.90
20777;DHT22;10548;47.504;8.248;2023-05-07T02:13:46;12.40;99.90
20777;DHT22;10548;47.504;8.248;2023-05-07T02:16:13;12.30;99.90
20777;DHT22;10548;47.504;8.248;2023-05-07T02:18:41;12.20;99.90
20777;DHT22;10548;47.504;8.248;2023-05-07T02:21:08;12.20;99.90
20777;DHT22;10548;47.504;8.248;2023-05-07T02:23:35;12.30;99.90
20777;DHT22;10548;47.504;8.248;2023-05-07T02:26:03;12.20;99.90
20777;DHT22;10548;47.504;8.248;2023-05-07T02:28:31;12.20;99.90
20777;DHT22;10548;47.504;8.248;2023-05-07T02:31:04;12.20;99.90
20777;DHT22;10548;47.504;8.248;2023-05-07T02:33:31;12.20;99.90
20777;DHT22;10548;47.504;8.248;2023-05-07T02:36:09;12.10;99.90
20777;DHT22;10548;47.504;8.248;2023-05-07T02:38:49;12.20;99.90
20777;DHT22;10548;47.504;8.248;2023-05-07T02:41:16;12.10;99.90
20777;DHT22;10548;47.504;8.248;2023-05-07T02:43:43;12.10;99.90
20777;DHT22;10548;47.504;8.248;2023-05-07T02:46:11;12.00;99.90
20777;DHT22;10548;47.504;8.248;2023-05-07T02:48:42;12.00;99.90
20777;DHT22;10548;47.504;8.248;2023-05-07T02:51:10;12.00;99.90
20777;DHT22;10548;47.504;8.248;2023-05-07T02:53:40;12.00;99.90
20777;DHT22;10548;47.504;8.248;2023-05-07T02:56:07;12.00;99.90
20777;DHT22;10548;47.504;8.248;2023-05-07T02:58:34;11.90;99.90
20777;DHT22;10548;47.504;8.248;2023-05-07T03:01:02;11.90;99.90
20777;DHT22;10548;47.504;8.248;2023-05-07T03:03:35;11.80;99.90
20777;DHT22;10548;47.504;8.248;2023-05-07T03:06:02;11.80;99.90
20777;DHT22;10548;47.504;8.248;2023-05-07T03:08:30;11.80;99.90
20777;DHT22;10548;47.504;8.248;2023-05-07T03:10:57;11.70;99.90
20777;DHT22;10548;47.504;8.248;2023-05-07T03:13:24;11.70;99.90
20777;DHT22;10548;47.504;8.248;2023-05-07T03:15:52;11.70;99.90
20777;DHT22;10548;47.504;8.248;2023-05-07T03:18:19;11.70;99.90
20777;DHT22;10548;47.504;8.248;2023-05-07T03:20:48;11.70;99.90
20777;DHT22;10548;47.504;8.248;2023-05-07T03:23:17;11.70;99.90
20777;DHT22;10548;47.504;8.248;2023-05-07T03:25:44;11.60;99.90
20777;DHT22;10548;47.504;8.248;2023-05-07T03:28:11;11.60;99.90
20777;DHT22;10548;47.504;8.248;2023-05-07T03:30:47;11.60;99.90
20777;DHT22;10548;47.504;8.248;2023-05-07T03:33:15;11.60;99.90
20777;DHT22;10548;47.504;8.248;2023-05-07T03:35:42;11.60;99.90
20777;DHT22;10548;47.504;8.248;2023-05-07T03:38:11;11.60;99.90
20777;DHT22;10548;47.504;8.248;2023-05-07T03:40:38;11.60;99.90
20777;DHT22;10548;47.504;8.248;2023-05-07T03:43:05;11.70;99.90
20777;DHT22;10548;47.504;8.248;2023-05-07T03:45:35;11.60;99.90
20777;DHT22;10548;47.504;8.248;2023-05-07T03:48:10;11.60;99.90
20777;DHT22;10548;47.504;8.248;2023-05-07T03:50:38;11.60;99.90
20777;DHT22;10548;47.504;8.248;2023-05-07T03:53:06;11.60;99.90
20777;DHT22;10548;47.504;8.248;2023-05-07T03:55:37;11.70;99.90
20777;DHT22;10548;47.504;8.248;2023-05-07T03:58:04;11.60;99.90
20777;DHT22;10548;47.504;8.248;2023-05-07T04:00:32;11.60;99.90
20777;DHT22;10548;47.504;8.248;2023-05-07T04:03:12;11.60;99.90
20777;DHT22;10548;47.504;8.248;2023-05-07T04:05:40;11.50;99.90
20777;DHT22;10548;47.504;8.248;2023-05-07T04:08:07;11.60;99.90
20777;DHT22;10548;47.504;8.248;2023-05-07T04:10:38;11.60;99.90
20777;DHT22;10548;47.504;8.248;2023-05-07T04:13:10;11.70;99.90
20777;DHT22;10548;47.504;8.248;2023-05-07T04:15:37;11.70;99.90
20777;DHT22;10548;47.504;8.248;2023-05-07T04:18:08;11.70;99.90
20777;DHT22;10548;47.504;8.248;2023-05-07T04:20:37;11.70;99.90
20777;DHT22;10548;47.504;8.248;2023-05-07T04:23:08;11.80;99.90
20777;DHT22;10548;47.504;8.248;2023-05-07T04:25:36;11.80;99.90
20777;DHT22;10548;47.504;8.248;2023-05-07T04:28:18;11.70;99.90
20777;DHT22;10548;47.504;8.248;2023-05-07T04:30:45;11.60;99.90
20777;DHT22;10548;47.504;8.248;2023-05-07T04:33:14;11.70;99.90
20777;DHT22;10548;47.504;8.248;2023-05-07T04:35:44;11.80;99.90
20777;DHT22;10548;47.504;8.248;2023-05-07T04:38:11;11.90;99.90
20777;DHT22;10548;47.504;8.248;2023-05-07T04:40:39;11.90;99.90
20777;DHT22;10548;47.504;8.248;2023-05-07T04:43:08;12.00;99.90
20777;DHT22;10548;47.504;8.248;2023-05-07T04:45:43;12.10;99.90
20777;DHT22;10548;47.504;8.248;2023-05-07T04:48:10;12.10;99.90
20777;DHT22;10548;47.504;8.248;2023-05-07T04:50:39;12.20;99.90
20777;DHT22;10548;47.504;8.248;2023-05-07T04:53:08;12.20;99.90
20777;DHT22;10548;47.504;8.248;2023-05-07T04:55:35;12.10;99.90
20777;DHT22;10548;47.504;8.248;2023-05-07T04:58:03;12.20;99.90
20777;DHT22;10548;47.504;8.248;2023-05-07T05:00:33;12.20;99.90
20777;DHT22;10548;47.504;8.248;2023-05-07T05:03:03;12.30;99.90
20777;DHT22;10548;47.504;8.248;2023-05-07T05:05:30;12.40;99.90
20777;DHT22;10548;47.504;8.248;2023-05-07T05:07:58;12.50;99.90
20777;DHT22;10548;47.504;8.248;2023-05-07T05:10:26;12.40;99.90
20777;DHT22;10548;47.504;8.248;2023-05-07T05:12:54;12.40;99.90
20777;DHT22;10548;47.504;8.248;2023-05-07T05:15:24;12.40;99.90
20777;DHT22;10548;47.504;8.248;2023-05-07T05:17:51;12.40;99.90
20777;DHT22;10548;47.504;8.248;2023-05-07T05:20:19;12.60;99.90
20777;DHT22;10548;47.504;8.248;2023-05-07T05:22:47;12.60;99.90
20777;DHT22;10548;47.504;8.248;2023-05-07T05:25:14;12.70;99.90
20777;DHT22;10548;47.504;8.248;2023-05-07T05:27:42;12.70;99.90
20777;DHT22;10548;47.504;8.248;2023-05-07T05:30:10;12.80;99.90
20777;DHT22;10548;47.504;8.248;2023-05-07T05:32:38;12.90;99.90
20777;DHT22;10548;47.504;8.248;2023-05-07T05:35:06;12.80;99.90
20777;DHT22;10548;47.504;8.248;2023-05-07T05:37:35;12.80;99.90
20777;DHT22;10548;47.504;8.248;2023-05-07T05:40:05;12.90;99.90
20777;DHT22;10548;47.504;8.248;2023-05-07T05:42:33;13.00;99.90
20777;DHT22;10548;47.504;8.248;2023-05-07T05:45:00;13.00;99.90
20777;DHT22;10548;47.504;8.248;2023-05-07T05:47:29;13.00;99.90
20777;DHT22;10548;47.504;8.248;2023-05-07T05:49:57;13.10;99.90
20777;DHT22;10548;47.504;8.248;2023-05-07T05:52:24;12.90;99.90
20777;DHT22;10548;47.504;8.248;2023-05-07T05:54:53;12.80;99.90
20777;DHT22;10548;47.504;8.248;2023-05-07T05:57:21;12.90;99.90
20777;DHT22;10548;47.504;8.248;2023-05-07T05:59:48;13.00;99.90
20777;DHT22;10548;47.504;8.248;2023-05-07T06:02:15;13.10;99.90
20777;DHT22;10548;47.504;8.248;2023-05-07T06:04:43;13.10;99.90
20777;DHT22;10548;47.504;8.248;2023-05-07T06:07:13;13.30;99.90
20777;DHT22;10548;47.504;8.248;2023-05-07T06:09:40;13.30;99.90
20777;DHT22;10548;47.504;8.248;2023-05-07T06:12:08;13.30;99.90
20777;DHT22;10548;47.504;8.248;2023-05-07T06:14:36;13.30;99.90
20777;DHT22;10548;47.504;8.248;2023-05-07T06:17:03;13.30;99.90
20777;DHT22;10548;47.504;8.248;2023-05-07T06:19:31;13.20;99.90
20777;DHT22;10548;47.504;8.248;2023-05-07T06:21:59;13.30;99.90
20777;DHT22;10548;47.504;8.248;2023-05-07T06:24:29;13.30;99.90
20777;DHT22;10548;47.504;8.248;2023-05-07T06:26:56;13.30;99.90
20777;DHT22;10548;47.504;8.248;2023-05-07T06:29:26;13.40;99.90
20777;DHT22;10548;47.504;8.248;2023-05-07T06:31:53;13.50;99.90
20777;DHT22;10548;47.504;8.248;2023-05-07T06:34:22;13.70;99.90
20777;DHT22;10548;47.504;8.248;2023-05-07T06:36:50;13.80;99.90
20777;DHT22;10548;47.504;8.248;2023-05-07T06:39:30;13.60;99.90
20777;DHT22;10548;47.504;8.248;2023-05-07T06:41:57;13.50;99.90
20777;DHT22;10548;47.504;8.248;2023-05-07T06:44:30;13.50;99.90
20777;DHT22;10548;47.504;8.248;2023-05-07T06:47:17;13.60;99.90
20777;DHT22;10548;47.504;8.248;2023-05-07T06:49:49;13.50;99.90
20777;DHT22;10548;47.504;8.248;2023-05-07T06:52:19;13.50;99.90
20777;DHT22;10548;47.504;8.248;2023-05-07T06:54:49;13.70;99.90
20777;DHT22;10548;47.504;8.248;2023-05-07T06:57:19;14.00;99.90
20777;DHT22;10548;47.504;8.248;2023-05-07T06:59:46;14.10;99.90
20777;DHT22;10548;47.504;8.248;2023-05-07T07:02:13;14.10;99.90
20777;DHT22;10548;47.504;8.248;2023-05-07T07:04:44;14.30;99.90
20777;DHT22;10548;47.504;8.248;2023-05-07T07:07:13;14.40;99.90
20777;DHT22;10548;47.504;8.248;2023-05-07T07:09:43;14.70;99.90
20777;DHT22;10548;47.504;8.248;2023-05-07T07:12:10;14.80;99.90
20777;DHT22;10548;47.504;8.248;2023-05-07T07:14:39;14.80;99.90
20777;DHT22;10548;47.504;8.248;2023-05-07T07:17:07;14.90;99.90
20777;DHT22;10548;47.504;8.248;2023-05-07T07:19:34;15.00;99.90
20777;DHT22;10548;47.504;8.248;2023-05-07T07:22:03;14.70;99.90
20777;DHT22;10548;47.504;8.248;2023-05-07T07:24:31;14.80;99.90
20777;DHT22;10548;47.504;8.248;2023-05-07T07:27:02;15.10;99.90
20777;DHT22;10548;47.504;8.248;2023-05-07T07:29:32;15.50;99.90
20777;DHT22;10548;47.504;8.248;2023-05-07T07:31:59;15.20;99.90
20777;DHT22;10548;47.504;8.248;2023-05-07T07:34:27;15.50;99.90
20777;DHT22;10548;47.504;8.248;2023-05-07T07:36:54;16.00;99.90
20777;DHT22;10548;47.504;8.248;2023-05-07T07:39:23;16.30;99.90
20777;DHT22;10548;47.504;8.248;2023-05-07T07:41:53;16.30;99.90
20777;DHT22;10548;47.504;8.248;2023-05-07T07:44:21;15.80;99.90
20777;DHT22;10548;47.504;8.248;2023-05-07T07:46:52;16.20;99.90
20777;DHT22;10548;47.504;8.248;2023-05-07T07:49:22;16.00;99.90
20777;DHT22;10548;47.504;8.248;2023-05-07T07:51:49;16.30;99.90
20777;DHT22;10548;47.504;8.248;2023-05-07T07:54:17;16.80;99.90
20777;DHT22;10548;47.504;8.248;2023-05-07T07:56:44;16.50;99.90
20777;DHT22;10548;47.504;8.248;2023-05-07T07:59:12;17.10;99.90
20777;DHT22;10548;47.504;8.248;2023-05-07T08:01:46;17.00;99.90
20777;DHT22;10548;47.504;8.248;2023-05-07T08:04:15;17.00;99.90
20777;DHT22;10548;47.504;8.248;2023-05-07T08:06:43;17.00;99.90
20777;DHT22;10548;47.504;8.248;2023-05-07T08:09:11;17.00;99.90
20777;DHT22;10548;47.504;8.248;2023-05-07T08:11:40;16.90;99.90
20777;DHT22;10548;47.504;8.248;2023-05-07T08:14:08;17.20;99.90
20777;DHT22;10548;47.504;8.248;2023-05-07T08:16:35;17.60;99.90
20777;DHT22;10548;47.504;8.248;2023-05-07T08:19:03;18.10;99.90
20777;DHT22;10548;47.504;8.248;2023-05-07T08:21:31;18.10;99.90
20777;DHT22;10548;47.504;8.248;2023-05-07T08:24:01;17.90;99.90
20777;DHT22;10548;47.504;8.248;2023-05-07T08:26:28;18.10;99.90
20777;DHT22;10548;47.504;8.248;2023-05-07T08:28:55;17.90;99.90
20777;DHT22;10548;47.504;8.248;2023-05-07T08:31:23;18.30;99.90
20777;DHT22;10548;47.504;8.248;2023-05-07T08:33:51;18.30;99.90
20777;DHT22;10548;47.504;8.248;2023-05-07T08:36:18;17.70;99.90
20777;DHT22;10548;47.504;8.248;2023-05-07T08:38:46;18.10;99.90
20777;DHT22;10548;47.504;8.248;2023-05-07T08:41:13;18.70;99.90
20777;DHT22;10548;47.504;8.248;2023-05-07T08:43:47;18.60;99.90
20777;DHT22;10548;47.504;8.248;2023-05-07T08:46:18;17.90;99.90
20777;DHT22;10548;47.504;8.248;2023-05-07T08:48:51;18.00;99.90
20777;DHT22;10548;47.504;8.248;2023-05-07T08:51:20;18.10;99.90
20777;DHT22;10548;47.504;8.248;2023-05-07T08:53:49;18.90;99.90
20777;DHT22;10548;47.504;8.248;2023-05-07T08:56:22;19.00;99.90
20777;DHT22;10548;47.504;8.248;2023-05-07T08:58:51;19.10;99.90
20777;DHT22;10548;47.504;8.248;2023-05-07T09:01:24;19.10;99.90
20777;DHT22;10548;47.504;8.248;2023-05-07T09:03:53;19.30;99.90
20777;DHT22;10548;47.504;8.248;2023-05-07T09:06:21;19.40;99.90
20777;DHT22;10548;47.504;8.248;2023-05-07T09:08:51;19.50;99.90
20777;DHT22;10548;47.504;8.248;2023-05-07T09:11:23;19.40;99.90
20777;DHT22;10548;47.504;8.248;2023-05-07T09:13:56;20.00;99.30
20777;DHT22;10548;47.504;8.248;2023-05-07T09:16:26;20.00;99.90
20777;DHT22;10548;47.504;8.248;2023-05-07T09:18:56;19.70;99.90
20777;DHT22;10548;47.504;8.248;2023-05-07T09:21:25;19.60;99.90
20777;DHT22;10548;47.504;8.248;2023-05-07T09:23:55;19.40;99.90
20777;DHT22;10548;47.504;8.248;2023-05-07T09:26:31;19.60;99.90
20777;DHT22;10548;47.504;8.248;2023-05-07T09:28:59;20.30;99.40
20777;DHT22;10548;47.504;8.248;2023-05-07T09:31:27;19.80;99.90
20777;DHT22;10548;47.504;8.248;2023-05-07T09:33:55;20.20;99.90
20777;DHT22;10548;47.504;8.248;2023-05-07T09:36:27;20.00;97.00
20777;DHT22;10548;47.504;8.248;2023-05-07T09:38:54;20.30;99.50
20777;DHT22;10548;47.504;8.248;2023-05-07T09:41:23;20.10;96.60
20777;DHT22;10548;47.504;8.248;2023-05-07T09:43:58;21.00;95.90
20777;DHT22;10548;47.504;8.248;2023-05-07T09:46:36;21.00;93.90
20777;DHT22;10548;47.504;8.248;2023-05-07T09:49:21;20.20;96.40
20777;DHT22;10548;47.504;8.248;2023-05-07T09:51:52;19.80;98.20
20777;DHT22;10548;47.504;8.248;2023-05-07T09:54:22;20.10;96.10
20777;DHT22;10548;47.504;8.248;2023-05-07T09:56:52;20.40;96.70
20777;DHT22;10548;47.504;8.248;2023-05-07T09:59:25;20.90;93.20
20777;DHT22;10548;47.504;8.248;2023-05-07T10:01:59;20.80;94.50
20777;DHT22;10548;47.504;8.248;2023-05-07T10:04:31;20.30;95.20
20777;DHT22;10548;47.504;8.248;2023-05-07T10:06:59;20.10;96.50
20777;DHT22;10548;47.504;8.248;2023-05-07T10:09:29;20.10;97.10
20777;DHT22;10548;47.504;8.248;2023-05-07T10:11:57;19.90;96.70
20777;DHT22;10548;47.504;8.248;2023-05-07T10:14:26;19.70;97.30
20777;DHT22;10548;47.504;8.248;2023-05-07T10:16:55;20.10;97.10
20777;DHT22;10548;47.504;8.248;2023-05-07T10:19:23;20.10;97.80
20777;DHT22;10548;47.504;8.248;2023-05-07T10:22:01;19.80;97.60
20777;DHT22;10548;47.504;8.248;2023-05-07T10:24:36;19.90;98.80
20777;DHT22;10548;47.504;8.248;2023-05-07T10:27:11;20.30;98.60
20777;DHT22;10548;47.504;8.248;2023-05-07T10:30:10;20.10;96.50
20777;DHT22;10548;47.504;8.248;2023-05-07T10:32:54;19.90;97.20
20777;DHT22;10548;47.504;8.248;2023-05-07T10:35:30;19.60;98.30
20777;DHT22;10548;47.504;8.248;2023-05-07T10:38:03;20.00;99.10
20777;DHT22;10548;47.504;8.248;2023-05-07T10:40:33;19.90;98.00
20777;DHT22;10548;47.504;8.248;2023-05-07T10:43:03;19.90;99.90
20777;DHT22;10548;47.504;8.248;2023-05-07T10:46:18;20.00;99.40
20777;DHT22;10548;47.504;8.248;2023-05-07T10:49:21;20.10;99.50
20777;DHT22;10548;47.504;8.248;2023-05-07T10:52:20;19.70;99.60
20777;DHT22;10548;47.504;8.248;2023-05-07T10:55:19;20.30;99.10
20777;DHT22;10548;47.504;8.248;2023-05-07T10:58:27;20.40;97.70
20777;DHT22;10548;47.504;8.248;2023-05-07T11:01:58;20.80;98.20
20777;DHT22;10548;47.504;8.248;2023-05-07T11:04:35;20.60;96.60
20777;DHT22;10548;47.504;8.248;2023-05-07T11:07:26;20.60;96.70
20777;DHT22;10548;47.504;8.248;2023-05-07T11:10:15;20.10;96.40
20777;DHT22;10548;47.504;8.248;2023-05-07T11:12:53;21.10;97.50
20777;DHT22;10548;47.504;8.248;2023-05-07T11:15:46;21.50;94.90
20777;DHT22;10548;47.504;8.248;2023-05-07T11:18:49;21.10;95.60
20777;DHT22;10548;47.504;8.248;2023-05-07T11:21:36;21.10;95.00
20777;DHT22;10548;47.504;8.248;2023-05-07T11:24:27;22.00;91.80
20777;DHT22;10548;47.504;8.248;2023-05-07T11:26:59;22.30;92.20
20777;DHT22;10548;47.504;8.248;2023-05-07T11:29:30;22.20;92.30
20777;DHT22;10548;47.504;8.248;2023-05-07T11:32:04;22.20;91.80
20777;DHT22;10548;47.504;8.248;2023-05-07T11:34:39;21.80;92.20
20777;DHT22;10548;47.504;8.248;2023-05-07T11:37:08;21.20;94.10
20777;DHT22;10548;47.504;8.248;2023-05-07T11:39:48;21.50;92.90
20777;DHT22;10548;47.504;8.248;2023-05-07T11:42:33;21.90;91.80
20777;DHT22;10548;47.504;8.248;2023-05-07T11:45:01;21.20;92.30
20777;DHT22;10548;47.504;8.248;2023-05-07T11:47:30;21.40;94.50
20777;DHT22;10548;47.504;8.248;2023-05-07T11:50:05;21.40;95.00
20777;DHT22;10548;47.504;8.248;2023-05-07T11:52:33;21.60;93.50
20777;DHT22;10548;47.504;8.248;2023-05-07T11:55:02;21.70;95.20
20777;DHT22;10548;47.504;8.248;2023-05-07T11:57:30;22.10;93.80
20777;DHT22;10548;47.504;8.248;2023-05-07T12:00:00;22.20;92.50
20777;DHT22;10548;47.504;8.248;2023-05-07T12:02:38;21.90;92.70
20777;DHT22;10548;47.504;8.248;2023-05-07T12:05:06;22.10;92.30
20777;DHT22;10548;47.504;8.248;2023-05-07T12:07:36;22.10;93.00
20777;DHT22;10548;47.504;8.248;2023-05-07T12:10:07;21.70;95.00
20777;DHT22;10548;47.504;8.248;2023-05-07T12:12:46;21.60;94.70
20777;DHT22;10548;47.504;8.248;2023-05-07T12:15:16;21.30;95.00
20777;DHT22;10548;47.504;8.248;2023-05-07T12:17:44;21.50;95.40
20777;DHT22;10548;47.504;8.248;2023-05-07T12:20:11;21.50;93.80
20777;DHT22;10548;47.504;8.248;2023-05-07T12:22:39;21.60;93.50
20777;DHT22;10548;47.504;8.248;2023-05-07T12:25:07;21.50;94.10
20777;DHT22;10548;47.504;8.248;2023-05-07T12:27:37;21.40;93.90
20777;DHT22;10548;47.504;8.248;2023-05-07T12:30:05;21.20;93.30
20777;DHT22;10548;47.504;8.248;2023-05-07T12:32:33;21.20;93.10
20777;DHT22;10548;47.504;8.248;2023-05-07T12:35:05;21.00;93.40
20777;DHT22;10548;47.504;8.248;2023-05-07T12:37:35;20.70;93.20
20777;DHT22;10548;47.504;8.248;2023-05-07T12:40:10;20.60;99.90
20777;DHT22;10548;47.504;8.248;2023-05-07T12:42:40;20.60;99.90
20777;DHT22;10548;47.504;8.248;2023-05-07T12:45:11;20.50;98.10
20777;DHT22;10548;47.504;8.248;2023-05-07T12:47:39;20.80;98.90
20777;DHT22;10548;47.504;8.248;2023-05-07T12:50:10;21.10;99.90
20777;DHT22;10548;47.504;8.248;2023-05-07T12:52:38;20.80;99.90
20777;DHT22;10548;47.504;8.248;2023-05-07T12:55:06;20.60;99.90
20777;DHT22;10548;47.504;8.248;2023-05-07T12:57:43;20.70;99.90
20777;DHT22;10548;47.504;8.248;2023-05-07T13:00:11;20.60;99.90
20777;DHT22;10548;47.504;8.248;2023-05-07T13:05:07;21.00;98.20
20777;DHT22;10548;47.504;8.248;2023-05-07T13:07:36;21.40;97.40
20777;DHT22;10548;47.504;8.248;2023-05-07T13:12:32;20.20;97.40
20777;DHT22;10548;47.504;8.248;2023-05-07T13:14:59;19.80;99.50
20777;DHT22;10548;47.504;8.248;2023-05-07T13:17:26;19.30;99.90
20777;DHT22;10548;47.504;8.248;2023-05-07T13:19:53;19.30;99.90
20777;DHT22;10548;47.504;8.248;2023-05-07T13:22:21;19.20;99.90
20777;DHT22;10548;47.504;8.248;2023-05-07T13:24:48;18.70;99.90
20777;DHT22;10548;47.504;8.248;2023-05-07T13:27:15;18.80;99.90
20777;DHT22;10548;47.504;8.248;2023-05-07T13:29:42;18.50;99.90
20777;DHT22;10548;47.504;8.248;2023-05-07T13:32:09;18.50;99.90
20777;DHT22;10548;47.504;8.248;2023-05-07T13:34:36;18.50;99.90
20777;DHT22;10548;47.504;8.248;2023-05-07T13:37:03;18.30;99.90
20777;DHT22;10548;47.504;8.248;2023-05-07T13:39:31;18.30;99.90
20777;DHT22;10548;47.504;8.248;2023-05-07T13:41:58;18.00;99.90
20777;DHT22;10548;47.504;8.248;2023-05-07T13:44:26;18.20;99.90
20777;DHT22;10548;47.504;8.248;2023-05-07T13:46:53;18.70;99.90
20777;DHT22;10548;47.504;8.248;2023-05-07T13:49:20;19.50;99.90
20777;DHT22;10548;47.504;8.248;2023-05-07T13:51:47;19.30;99.90
20777;DHT22;10548;47.504;8.248;2023-05-07T13:54:14;18.60;99.90
20777;DHT22;10548;47.504;8.248;2023-05-07T13:56:42;18.80;99.90
20777;DHT22;10548;47.504;8.248;2023-05-07T13:59:10;19.20;99.90
20777;DHT22;10548;47.504;8.248;2023-05-07T14:01:37;19.30;99.90
20777;DHT22;10548;47.504;8.248;2023-05-07T14:04:04;19.20;99.90
20777;DHT22;10548;47.504;8.248;2023-05-07T14:06:31;19.00;99.90
20777;DHT22;10548;47.504;8.248;2023-05-07T14:08:59;18.60;99.90
20777;DHT22;10548;47.504;8.248;2023-05-07T14:11:26;18.70;99.90
20777;DHT22;10548;47.504;8.248;2023-05-07T14:13:54;19.10;99.90
20777;DHT22;10548;47.504;8.248;2023-05-07T14:16:21;19.10;99.90
20777;DHT22;10548;47.504;8.248;2023-05-07T14:18:48;19.00;99.90
20777;DHT22;10548;47.504;8.248;2023-05-07T14:21:15;18.90;99.90
20777;DHT22;10548;47.504;8.248;2023-05-07T14:23:43;18.60;99.90
20777;DHT22;10548;47.504;8.248;2023-05-07T14:26:10;18.30;99.90
20777;DHT22;10548;47.504;8.248;2023-05-07T14:28:37;18.30;99.90
20777;DHT22;10548;47.504;8.248;2023-05-07T14:31:06;18.60;99.90
20777;DHT22;10548;47.504;8.248;2023-05-07T14:33:34;18.40;99.90
20777;DHT22;10548;47.504;8.248;2023-05-07T14:36:01;18.40;99.90
20777;DHT22;10548;47.504;8.248;2023-05-07T14:38:28;18.30;99.90
20777;DHT22;10548;47.504;8.248;2023-05-07T14:40:55;18.20;99.90
20777;DHT22;10548;47.504;8.248;2023-05-07T14:43:23;18.20;99.90
20777;DHT22;10548;47.504;8.248;2023-05-07T14:45:50;18.30;99.90
20777;DHT22;10548;47.504;8.248;2023-05-07T14:48:17;18.40;99.90
20777;DHT22;10548;47.504;8.248;2023-05-07T14:50:47;18.20;99.90
20777;DHT22;10548;47.504;8.248;2023-05-07T14:53:15;18.10;99.90
20777;DHT22;10548;47.504;8.248;2023-05-07T14:55:42;18.10;99.90
20777;DHT22;10548;47.504;8.248;2023-05-07T14:58:10;18.10;99.90
20777;DHT22;10548;47.504;8.248;2023-05-07T15:00:38;18.00;99.90
20777;DHT22;10548;47.504;8.248;2023-05-07T15:03:09;18.00;99.90
20777;DHT22;10548;47.504;8.248;2023-05-07T15:05:40;17.90;99.90
20777;DHT22;10548;47.504;8.248;2023-05-07T15:08:08;18.10;99.90
20777;DHT22;10548;47.504;8.248;2023-05-07T15:10:37;18.00;99.90
20777;DHT22;10548;47.504;8.248;2023-05-07T15:13:09;18.00;99.90
20777;DHT22;10548;47.504;8.248;2023-05-07T15:15:42;17.90;99.90
20777;DHT22;10548;47.504;8.248;2023-05-07T15:18:11;17.80;99.90
20777;DHT22;10548;47.504;8.248;2023-05-07T15:20:38;17.80;99.90
20777;DHT22;10548;47.504;8.248;2023-05-07T15:23:06;17.80;99.90
20777;DHT22;10548;47.504;8.248;2023-05-07T15:25:37;17.70;99.90
20777;DHT22;10548;47.504;8.248;2023-05-07T15:28:05;17.60;99.90
20777;DHT22;10548;47.504;8.248;2023-05-07T15:30:32;17.60;99.90
20777;DHT22;10548;47.504;8.248;2023-05-07T15:33:01;17.70;99.90
20777;DHT22;10548;47.504;8.248;2023-05-07T15:35:28;17.60;99.90
20777;DHT22;10548;47.504;8.248;2023-05-07T15:37:55;17.70;99.90
20777;DHT22;10548;47.504;8.248;2023-05-07T15:40:23;17.80;99.90
20777;DHT22;10548;47.504;8.248;2023-05-07T15:42:54;17.80;99.90
20777;DHT22;10548;47.504;8.248;2023-05-07T15:45:23;17.70;99.90
20777;DHT22;10548;47.504;8.248;2023-05-07T15:47:51;17.80;99.90
20777;DHT22;10548;47.504;8.248;2023-05-07T15:50:18;17.90;99.90
20777;DHT22;10548;47.504;8.248;2023-05-07T15:52:45;17.90;99.90